sensor_id;sensor_type;location;lat;lon;timestamp;temperature;humidity
8862;DHT22;4799;50.996;4.754;2022-12-16T00:01:37;-3.30;99.90
8862;DHT22;4799;50.996;4.754;2022-12-16T00:04:03;-3.20;99.90
8862;DHT22;4799;50.996;4.754;2022-12-16T00:06:31;-3.20;99.90
8862;DHT22;4799;50.996;4.754;2022-12-16T00:08:59;-3.10;99.90
8862;DHT22;4799;50.996;4.754;2022-12-16T00:11:25;-3.10;99.90
8862;DHT22;4799;50.996;4.754;2022-12-16T00:13:51;-3.00;99.90
8862;DHT22;4799;50.996;4.754;2022-12-16T00:16:18;-3.00;99.90
8862;DHT22;4799;50.996;4.754;2022-12-16T00:18:45;-2.90;99.90
8862;DHT22;4799;50.996;4.754;2022-12-16T00:21:11;-2.90;99.90
8862;DHT22;4799;50.996;4.754;2022-12-16T00:23:37;-2.80;99.90
8862;DHT22;4799;50.996;4.754;2022-12-16T00:26:04;-2.80;99.90
8862;DHT22;4799;50.996;4.754;2022-12-16T00:28:30;-2.70;99.90
8862;DHT22;4799;50.996;4.754;2022-12-16T00:30:57;-2.70;99.90
8862;DHT22;4799;50.996;4.754;2022-12-16T00:33:25;-2.60;99.90
8862;DHT22;4799;50.996;4.754;2022-12-16T00:35:51;-2.60;99.90
8862;DHT22;4799;50.996;4.754;2022-12-16T00:38:17;-2.50;99.90
8862;DHT22;4799;50.996;4.754;2022-12-16T00:40:43;-2.50;99.90
8862;DHT22;4799;50.996;4.754;2022-12-16T00:43:09;-2.50;99.90
8862;DHT22;4799;50.996;4.754;2022-12-16T00:45:35;-2.50;99.90
8862;DHT22;4799;50.996;4.754;2022-12-16T00:48:02;-2.40;99.90
8862;DHT22;4799;50.996;4.754;2022-12-16T00:50:28;-2.40;99.90
8862;DHT22;4799;50.996;4.754;2022-12-16T00:52:53;-2.40;99.90
8862;DHT22;4799;50.996;4.754;2022-12-16T00:55:19;-2.30;99.90
8862;DHT22;4799;50.996;4.754;2022-12-16T00:57:45;-2.30;99.90
8862;DHT22;4799;50.996;4.754;2022-12-16T01:00:13;-2.30;99.90
8862;DHT22;4799;50.996;4.754;2022-12-16T01:02:43;-2.20;99.90
8862;DHT22;4799;50.996;4.754;2022-12-16T01:05:12;-2.20;99.90
8862;DHT22;4799;50.996;4.754;2022-12-16T01:07:38;-2.20;99.90
8862;DHT22;4799;50.996;4.754;2022-12-16T01:10:05;-2.20;99.90
8862;DHT22;4799;50.996;4.754;2022-12-16T01:12:31;-2.10;99.90
8862;DHT22;4799;50.996;4.754;2022-12-16T01:14:57;-2.10;99.90
8862;DHT22;4799;50.996;4.754;2022-12-16T01:17:24;-2.10;99.90
8862;DHT22;4799;50.996;4.754;2022-12-16T01:19:51;-2.10;99.90
8862;DHT22;4799;50.996;4.754;2022-12-16T01:22:17;-2.00;99.90
8862;DHT22;4799;50.996;4.754;2022-12-16T01:24:44;-2.00;99.90
8862;DHT22;4799;50.996;4.754;2022-12-16T01:27:10;-2.00;99.90
8862;DHT22;4799;50.996;4.754;2022-12-16T01:29:36;-1.90;99.90
8862;DHT22;4799;50.996;4.754;2022-12-16T01:32:02;-1.90;99.90
8862;DHT22;4799;50.996;4.754;2022-12-16T01:34:27;-1.80;99.90
8862;DHT22;4799;50.996;4.754;2022-12-16T01:36:53;-1.80;99.90
8862;DHT22;4799;50.996;4.754;2022-12-16T01:39:19;-1.80;99.90
8862;DHT22;4799;50.996;4.754;2022-12-16T01:41:45;-1.70;99.90
8862;DHT22;4799;50.996;4.754;2022-12-16T01:44:17;-1.70;99.90
8862;DHT22;4799;50.996;4.754;2022-12-16T01:46:48;-1.70;99.90
8862;DHT22;4799;50.996;4.754;2022-12-16T01:51:50;-1.60;99.90
8862;DHT22;4799;50.996;4.754;2022-12-16T01:54:21;-1.60;99.90
8862;DHT22;4799;50.996;4.754;2022-12-16T01:56:57;-1.60;99.90
8862;DHT22;4799;50.996;4.754;2022-12-16T01:59:24;-1.60;99.90
8862;DHT22;4799;50.996;4.754;2022-12-16T02:01:51;-1.60;99.90
8862;DHT22;4799;50.996;4.754;2022-12-16T02:04:17;-1.60;99.90
8862;DHT22;4799;50.996;4.754;2022-12-16T02:06:43;-1.50;99.90
8862;DHT22;4799;50.996;4.754;2022-12-16T02:09:10;-1.50;99.90
8862;DHT22;4799;50.996;4.754;2022-12-16T02:17:12;-1.50;99.90
8862;DHT22;4799;50.996;4.754;2022-12-16T02:22:46;-1.40;99.90
8862;DHT22;4799;50.996;4.754;2022-12-16T02:25:36;-1.40;99.90
8862;DHT22;4799;50.996;4.754;2022-12-16T02:30:59;-1.40;99.90
8862;DHT22;4799;50.996;4.754;2022-12-16T02:36:50;-1.30;99.90
8862;DHT22;4799;50.996;4.754;2022-12-16T02:39:21;-1.30;99.90
8862;DHT22;4799;50.996;4.754;2022-12-16T02:42:18;-1.30;99.90
8862;DHT22;4799;50.996;4.754;2022-12-16T02:45:10;-1.20;99.90
8862;DHT22;4799;50.996;4.754;2022-12-16T02:47:38;-1.20;99.90
8862;DHT22;4799;50.996;4.754;2022-12-16T02:50:13;-1.20;99.90
8862;DHT22;4799;50.996;4.754;2022-12-16T02:52:40;-1.10;99.90
8862;DHT22;4799;50.996;4.754;2022-12-16T02:55:07;-1.10;99.90
8862;DHT22;4799;50.996;4.754;2022-12-16T03:00:11;-1.10;99.90
8862;DHT22;4799;50.996;4.754;2022-12-16T03:06:00;-1.00;99.90
8862;DHT22;4799;50.996;4.754;2022-12-16T03:08:33;-1.00;99.90
8862;DHT22;4799;50.996;4.754;2022-12-16T03:11:02;-1.00;99.90
8862;DHT22;4799;50.996;4.754;2022-12-16T03:13:42;-1.00;99.90
8862;DHT22;4799;50.996;4.754;2022-12-16T03:16:11;-1.00;99.90
8862;DHT22;4799;50.996;4.754;2022-12-16T03:18:43;-0.90;99.90
8862;DHT22;4799;50.996;4.754;2022-12-16T03:21:13;-0.90;99.90
8862;DHT22;4799;50.996;4.754;2022-12-16T03:23:47;-0.90;99.90
8862;DHT22;4799;50.996;4.754;2022-12-16T03:26:22;-0.90;99.90
8862;DHT22;4799;50.996;4.754;2022-12-16T03:28:50;-0.80;99.90
8862;DHT22;4799;50.996;4.754;2022-12-16T03:31:42;-0.80;99.90
8862;DHT22;4799;50.996;4.754;2022-12-16T03:36:36;-0.90;99.90
8862;DHT22;4799;50.996;4.754;2022-12-16T03:39:05;-0.90;99.90
8862;DHT22;4799;50.996;4.754;2022-12-16T03:41:31;-0.80;99.90
8862;DHT22;4799;50.996;4.754;2022-12-16T03:43:58;-0.80;99.90
8862;DHT22;4799;50.996;4.754;2022-12-16T03:46:24;-0.80;99.90
8862;DHT22;4799;50.996;4.754;2022-12-16T03:48:50;-0.80;99.90
8862;DHT22;4799;50.996;4.754;2022-12-16T03:51:17;-0.80;99.90
8862;DHT22;4799;50.996;4.754;2022-12-16T03:53:44;-0.80;99.90
8862;DHT22;4799;50.996;4.754;2022-12-16T03:56:11;-0.80;99.90
8862;DHT22;4799;50.996;4.754;2022-12-16T03:58:38;-0.70;99.90
8862;DHT22;4799;50.996;4.754;2022-12-16T04:01:09;-0.70;99.90
8862;DHT22;4799;50.996;4.754;2022-12-16T04:03:36;-0.70;99.90
8862;DHT22;4799;50.996;4.754;2022-12-16T04:06:03;-0.70;99.90
8862;DHT22;4799;50.996;4.754;2022-12-16T04:08:29;-0.70;99.90
8862;DHT22;4799;50.996;4.754;2022-12-16T04:10:54;-0.60;99.90
8862;DHT22;4799;50.996;4.754;2022-12-16T04:13:39;-0.60;99.90
8862;DHT22;4799;50.996;4.754;2022-12-16T04:16:26;-0.70;99.90
8862;DHT22;4799;50.996;4.754;2022-12-16T04:19:21;-0.60;99.90
8862;DHT22;4799;50.996;4.754;2022-12-16T04:22:31;-0.60;99.90
8862;DHT22;4799;50.996;4.754;2022-12-16T04:25:31;-0.60;99.90
8862;DHT22;4799;50.996;4.754;2022-12-16T04:27:58;-0.60;99.90
8862;DHT22;4799;50.996;4.754;2022-12-16T04:30:25;-0.60;99.90
8862;DHT22;4799;50.996;4.754;2022-12-16T04:33:10;-0.60;99.90
8862;DHT22;4799;50.996;4.754;2022-12-16T04:35:55;-0.60;99.90
8862;DHT22;4799;50.996;4.754;2022-12-16T04:38:39;-0.50;99.90
8862;DHT22;4799;50.996;4.754;2022-12-16T04:41:23;-0.50;99.90
8862;DHT22;4799;50.996;4.754;2022-12-16T04:44:08;-0.50;99.90
8862;DHT22;4799;50.996;4.754;2022-12-16T04:46:52;-0.50;99.90
8862;DHT22;4799;50.996;4.754;2022-12-16T04:49:36;-0.40;99.90
8862;DHT22;4799;50.996;4.754;2022-12-16T04:52:21;-0.40;99.90
8862;DHT22;4799;50.996;4.754;2022-12-16T04:55:06;-0.40;99.90
8862;DHT22;4799;50.996;4.754;2022-12-16T04:57:52;-0.40;99.90
8862;DHT22;4799;50.996;4.754;2022-12-16T05:00:36;-0.40;99.90
8862;DHT22;4799;50.996;4.754;2022-12-16T05:03:21;-0.40;99.90
8862;DHT22;4799;50.996;4.754;2022-12-16T05:06:05;-0.30;99.90
8862;DHT22;4799;50.996;4.754;2022-12-16T05:08:49;-0.30;99.90
8862;DHT22;4799;50.996;4.754;2022-12-16T05:11:33;-0.30;99.90
8862;DHT22;4799;50.996;4.754;2022-12-16T05:14:17;-0.20;99.90
8862;DHT22;4799;50.996;4.754;2022-12-16T05:17:01;-0.20;99.90
8862;DHT22;4799;50.996;4.754;2022-12-16T05:19:46;-0.20;99.90
8862;DHT22;4799;50.996;4.754;2022-12-16T05:22:31;-0.20;99.90
8862;DHT22;4799;50.996;4.754;2022-12-16T05:25:15;-0.10;99.90
8862;DHT22;4799;50.996;4.754;2022-12-16T05:27:59;-0.10;99.90
8862;DHT22;4799;50.996;4.754;2022-12-16T05:30:43;-0.10;99.90
8862;DHT22;4799;50.996;4.754;2022-12-16T05:33:28;0.00;99.90
8862;DHT22;4799;50.996;4.754;2022-12-16T05:36:12;0.00;99.90
8862;DHT22;4799;50.996;4.754;2022-12-16T05:38:57;0.10;99.90
8862;DHT22;4799;50.996;4.754;2022-12-16T05:41:41;0.10;99.90
8862;DHT22;4799;50.996;4.754;2022-12-16T05:44:25;0.10;99.90
8862;DHT22;4799;50.996;4.754;2022-12-16T05:47:10;0.10;99.90
8862;DHT22;4799;50.996;4.754;2022-12-16T05:49:55;0.20;99.90
8862;DHT22;4799;50.996;4.754;2022-12-16T05:52:39;0.20;99.90
8862;DHT22;4799;50.996;4.754;2022-12-16T05:55:23;0.20;99.90
8862;DHT22;4799;50.996;4.754;2022-12-16T05:58:07;0.30;99.90
8862;DHT22;4799;50.996;4.754;2022-12-16T06:00:51;0.30;99.90
8862;DHT22;4799;50.996;4.754;2022-12-16T06:03:36;0.30;99.90
8862;DHT22;4799;50.996;4.754;2022-12-16T06:06:20;0.40;99.90
8862;DHT22;4799;50.996;4.754;2022-12-16T06:09:05;0.40;99.90
8862;DHT22;4799;50.996;4.754;2022-12-16T06:11:50;0.40;99.90
8862;DHT22;4799;50.996;4.754;2022-12-16T06:14:35;0.50;99.90
8862;DHT22;4799;50.996;4.754;2022-12-16T06:17:20;0.50;99.90
8862;DHT22;4799;50.996;4.754;2022-12-16T06:20:05;0.50;99.90
8862;DHT22;4799;50.996;4.754;2022-12-16T06:22:53;0.50;99.90
8862;DHT22;4799;50.996;4.754;2022-12-16T06:25:38;0.50;99.90
8862;DHT22;4799;50.996;4.754;2022-12-16T06:28:22;0.50;99.90
8862;DHT22;4799;50.996;4.754;2022-12-16T06:31:07;0.50;99.90
8862;DHT22;4799;50.996;4.754;2022-12-16T06:33:52;0.50;99.90
8862;DHT22;4799;50.996;4.754;2022-12-16T06:36:36;0.50;99.90
8862;DHT22;4799;50.996;4.754;2022-12-16T06:39:21;0.60;99.90
8862;DHT22;4799;50.996;4.754;2022-12-16T06:42:05;0.60;99.90
8862;DHT22;4799;50.996;4.754;2022-12-16T06:44:49;0.60;99.90
8862;DHT22;4799;50.996;4.754;2022-12-16T06:47:33;0.60;99.90
8862;DHT22;4799;50.996;4.754;2022-12-16T06:50:19;0.60;99.90
8862;DHT22;4799;50.996;4.754;2022-12-16T06:53:03;0.60;99.90
8862;DHT22;4799;50.996;4.754;2022-12-16T06:55:47;0.60;99.90
8862;DHT22;4799;50.996;4.754;2022-12-16T06:58:31;0.60;99.90
8862;DHT22;4799;50.996;4.754;2022-12-16T07:01:15;0.50;99.90
8862;DHT22;4799;50.996;4.754;2022-12-16T07:03:59;0.50;99.90
8862;DHT22;4799;50.996;4.754;2022-12-16T07:06:44;0.40;99.90
8862;DHT22;4799;50.996;4.754;2022-12-16T07:09:28;0.10;99.90
8862;DHT22;4799;50.996;4.754;2022-12-16T07:12:12;-0.10;99.90
8862;DHT22;4799;50.996;4.754;2022-12-16T07:14:56;-0.20;99.90
8862;DHT22;4799;50.996;4.754;2022-12-16T07:17:40;-0.30;99.90
8862;DHT22;4799;50.996;4.754;2022-12-16T07:20:27;-0.30;99.90
8862;DHT22;4799;50.996;4.754;2022-12-16T07:23:11;-0.20;99.90
8862;DHT22;4799;50.996;4.754;2022-12-16T07:25:55;-0.10;99.90
8862;DHT22;4799;50.996;4.754;2022-12-16T07:28:39;0.00;99.90
8862;DHT22;4799;50.996;4.754;2022-12-16T07:31:24;0.10;99.90
8862;DHT22;4799;50.996;4.754;2022-12-16T07:34:08;0.20;99.90
8862;DHT22;4799;50.996;4.754;2022-12-16T07:36:52;0.30;99.90
8862;DHT22;4799;50.996;4.754;2022-12-16T07:39:36;0.30;99.90
8862;DHT22;4799;50.996;4.754;2022-12-16T07:42:21;0.40;99.90
8862;DHT22;4799;50.996;4.754;2022-12-16T07:45:05;0.50;99.90
8862;DHT22;4799;50.996;4.754;2022-12-16T07:47:50;0.50;99.90
8862;DHT22;4799;50.996;4.754;2022-12-16T07:50:35;0.60;99.90
8862;DHT22;4799;50.996;4.754;2022-12-16T07:53:20;0.60;99.90
8862;DHT22;4799;50.996;4.754;2022-12-16T07:56:06;0.60;99.90
8862;DHT22;4799;50.996;4.754;2022-12-16T07:58:50;0.60;99.90
8862;DHT22;4799;50.996;4.754;2022-12-16T08:01:35;0.70;99.90
8862;DHT22;4799;50.996;4.754;2022-12-16T08:04:19;0.70;99.90
8862;DHT22;4799;50.996;4.754;2022-12-16T08:07:03;0.70;99.90
8862;DHT22;4799;50.996;4.754;2022-12-16T08:09:47;0.70;99.90
8862;DHT22;4799;50.996;4.754;2022-12-16T08:12:31;0.80;99.90
8862;DHT22;4799;50.996;4.754;2022-12-16T08:15:15;0.80;99.90
8862;DHT22;4799;50.996;4.754;2022-12-16T08:17:59;0.80;99.90
8862;DHT22;4799;50.996;4.754;2022-12-16T08:20:43;0.90;99.90
8862;DHT22;4799;50.996;4.754;2022-12-16T08:23:28;0.90;99.90
8862;DHT22;4799;50.996;4.754;2022-12-16T08:26:13;0.90;99.90
8862;DHT22;4799;50.996;4.754;2022-12-16T08:28:57;1.00;99.90
8862;DHT22;4799;50.996;4.754;2022-12-16T08:31:41;1.00;99.90
8862;DHT22;4799;50.996;4.754;2022-12-16T08:34:25;1.00;99.90
8862;DHT22;4799;50.996;4.754;2022-12-16T08:37:09;1.00;99.90
8862;DHT22;4799;50.996;4.754;2022-12-16T08:39:53;1.10;99.90
8862;DHT22;4799;50.996;4.754;2022-12-16T08:42:38;1.10;99.90
8862;DHT22;4799;50.996;4.754;2022-12-16T08:45:22;1.10;99.90
8862;DHT22;4799;50.996;4.754;2022-12-16T08:48:07;1.10;99.90
8862;DHT22;4799;50.996;4.754;2022-12-16T08:50:52;1.20;99.90
8862;DHT22;4799;50.996;4.754;2022-12-16T08:53:36;1.20;99.90
8862;DHT22;4799;50.996;4.754;2022-12-16T08:56:20;1.30;99.90
8862;DHT22;4799;50.996;4.754;2022-12-16T08:59:05;1.30;99.90
8862;DHT22;4799;50.996;4.754;2022-12-16T09:01:49;1.40;99.90
8862;DHT22;4799;50.996;4.754;2022-12-16T09:04:33;1.40;99.90
8862;DHT22;4799;50.996;4.754;2022-12-16T09:07:17;1.50;99.90
8862;DHT22;4799;50.996;4.754;2022-12-16T09:10:03;1.50;99.90
8862;DHT22;4799;50.996;4.754;2022-12-16T09:12:47;1.50;99.90
8862;DHT22;4799;50.996;4.754;2022-12-16T09:15:32;1.60;99.90
8862;DHT22;4799;50.996;4.754;2022-12-16T09:18:16;1.60;99.90
8862;DHT22;4799;50.996;4.754;2022-12-16T09:21:00;1.60;99.90
8862;DHT22;4799;50.996;4.754;2022-12-16T09:23:44;1.70;99.90
8862;DHT22;4799;50.996;4.754;2022-12-16T09:26:29;1.70;99.90
8862;DHT22;4799;50.996;4.754;2022-12-16T09:29:13;1.70;99.90
8862;DHT22;4799;50.996;4.754;2022-12-16T09:31:58;1.80;99.90
8862;DHT22;4799;50.996;4.754;2022-12-16T09:34:42;1.80;99.90
8862;DHT22;4799;50.996;4.754;2022-12-16T09:37:26;1.80;99.90
8862;DHT22;4799;50.996;4.754;2022-12-16T09:40:14;1.80;99.90
8862;DHT22;4799;50.996;4.754;2022-12-16T09:52:20;2.00;99.90
8862;DHT22;4799;50.996;4.754;2022-12-16T09:55:22;2.00;99.90
8862;DHT22;4799;50.996;4.754;2022-12-16T09:58:10;2.00;99.90
8862;DHT22;4799;50.996;4.754;2022-12-16T10:00:55;1.90;99.90
8862;DHT22;4799;50.996;4.754;2022-12-16T10:03:40;1.80;99.90
8862;DHT22;4799;50.996;4.754;2022-12-16T10:06:41;1.80;99.90
8862;DHT22;4799;50.996;4.754;2022-12-16T10:12:56;1.70;99.90
8862;DHT22;4799;50.996;4.754;2022-12-16T10:21:47;1.30;99.90
8862;DHT22;4799;50.996;4.754;2022-12-16T10:27:44;1.20;99.90
8862;DHT22;4799;50.996;4.754;2022-12-16T10:30:30;1.20;99.90
8862;DHT22;4799;50.996;4.754;2022-12-16T10:33:15;1.20;99.90
8862;DHT22;4799;50.996;4.754;2022-12-16T10:36:02;1.20;99.90
8862;DHT22;4799;50.996;4.754;2022-12-16T10:39:00;1.20;99.90
8862;DHT22;4799;50.996;4.754;2022-12-16T10:41:48;1.30;99.90
8862;DHT22;4799;50.996;4.754;2022-12-16T10:47:21;1.50;99.90
8862;DHT22;4799;50.996;4.754;2022-12-16T10:50:05;1.70;99.90
8862;DHT22;4799;50.996;4.754;2022-12-16T10:52:55;1.80;99.90
8862;DHT22;4799;50.996;4.754;2022-12-16T10:58:59;1.90;99.90
8862;DHT22;4799;50.996;4.754;2022-12-16T11:04:58;1.80;99.90
8862;DHT22;4799;50.996;4.754;2022-12-16T11:10:29;1.90;99.90
8862;DHT22;4799;50.996;4.754;2022-12-16T11:13:27;1.90;99.90
8862;DHT22;4799;50.996;4.754;2022-12-16T11:19:20;1.80;99.90
8862;DHT22;4799;50.996;4.754;2022-12-16T11:22:25;1.70;99.90
8862;DHT22;4799;50.996;4.754;2022-12-16T11:25:15;1.80;99.90
8862;DHT22;4799;50.996;4.754;2022-12-16T11:28:15;1.80;99.90
8862;DHT22;4799;50.996;4.754;2022-12-16T11:31:06;1.80;99.90
8862;DHT22;4799;50.996;4.754;2022-12-16T11:33:55;1.80;99.90
8862;DHT22;4799;50.996;4.754;2022-12-16T11:36:43;1.70;99.90
8862;DHT22;4799;50.996;4.754;2022-12-16T11:39:29;1.70;99.90
8862;DHT22;4799;50.996;4.754;2022-12-16T11:42:23;1.60;99.90
8862;DHT22;4799;50.996;4.754;2022-12-16T11:45:19;1.60;99.90
8862;DHT22;4799;50.996;4.754;2022-12-16T11:51:41;1.50;99.90
8862;DHT22;4799;50.996;4.754;2022-12-16T11:54:32;1.40;99.90
8862;DHT22;4799;50.996;4.754;2022-12-16T11:57:22;1.40;99.90
8862;DHT22;4799;50.996;4.754;2022-12-16T12:00:13;1.40;99.90
8862;DHT22;4799;50.996;4.754;2022-12-16T12:03:05;1.40;99.90
8862;DHT22;4799;50.996;4.754;2022-12-16T12:06:39;1.40;99.90
8862;DHT22;4799;50.996;4.754;2022-12-16T12:09:21;1.50;99.90
8862;DHT22;4799;50.996;4.754;2022-12-16T12:18:43;1.50;99.90
8862;DHT22;4799;50.996;4.754;2022-12-16T12:22:00;1.50;99.90
8862;DHT22;4799;50.996;4.754;2022-12-16T12:25:11;1.50;99.90
8862;DHT22;4799;50.996;4.754;2022-12-16T12:28:18;1.50;99.90
8862;DHT22;4799;50.996;4.754;2022-12-16T12:31:17;1.50;99.90
8862;DHT22;4799;50.996;4.754;2022-12-16T12:37:11;1.50;99.90
8862;DHT22;4799;50.996;4.754;2022-12-16T12:43:17;1.50;99.90
8862;DHT22;4799;50.996;4.754;2022-12-16T12:46:15;1.50;99.90
8862;DHT22;4799;50.996;4.754;2022-12-16T12:49:26;1.40;99.90
8862;DHT22;4799;50.996;4.754;2022-12-16T12:55:09;1.40;99.90
8862;DHT22;4799;50.996;4.754;2022-12-16T12:57:56;1.50;99.90
8862;DHT22;4799;50.996;4.754;2022-12-16T13:00:49;1.50;99.90
8862;DHT22;4799;50.996;4.754;2022-12-16T13:03:47;1.50;99.90
8862;DHT22;4799;50.996;4.754;2022-12-16T13:06:36;1.50;99.90
8862;DHT22;4799;50.996;4.754;2022-12-16T13:09:24;1.50;99.90
8862;DHT22;4799;50.996;4.754;2022-12-16T13:15:19;1.50;99.90
8862;DHT22;4799;50.996;4.754;2022-12-16T13:20:55;1.60;99.90
8862;DHT22;4799;50.996;4.754;2022-12-16T13:23:44;1.60;99.90
8862;DHT22;4799;50.996;4.754;2022-12-16T13:26:32;1.60;99.90
8862;DHT22;4799;50.996;4.754;2022-12-16T13:29:29;1.60;99.90
8862;DHT22;4799;50.996;4.754;2022-12-16T13:32:24;1.50;99.90
8862;DHT22;4799;50.996;4.754;2022-12-16T13:37:57;1.50;99.90
8862;DHT22;4799;50.996;4.754;2022-12-16T13:40:57;1.50;99.90
8862;DHT22;4799;50.996;4.754;2022-12-16T13:43:58;1.50;99.90
8862;DHT22;4799;50.996;4.754;2022-12-16T13:49:52;1.50;99.90
8862;DHT22;4799;50.996;4.754;2022-12-16T13:58:38;1.50;99.90
8862;DHT22;4799;50.996;4.754;2022-12-16T14:04:25;1.60;99.90
8862;DHT22;4799;50.996;4.754;2022-12-16T14:07:10;1.60;99.90
8862;DHT22;4799;50.996;4.754;2022-12-16T14:09:54;1.60;99.90
8862;DHT22;4799;50.996;4.754;2022-12-16T14:25:16;1.60;99.90
8862;DHT22;4799;50.996;4.754;2022-12-16T14:31:04;1.50;99.90
8862;DHT22;4799;50.996;4.754;2022-12-16T14:33:53;1.40;99.90
8862;DHT22;4799;50.996;4.754;2022-12-16T14:36:38;1.40;99.90
8862;DHT22;4799;50.996;4.754;2022-12-16T14:39:37;1.40;99.90
8862;DHT22;4799;50.996;4.754;2022-12-16T14:42:27;1.30;99.90
8862;DHT22;4799;50.996;4.754;2022-12-16T14:45:33;1.30;99.90
8862;DHT22;4799;50.996;4.754;2022-12-16T14:48:21;1.30;99.90
8862;DHT22;4799;50.996;4.754;2022-12-16T14:51:20;1.20;99.90
8862;DHT22;4799;50.996;4.754;2022-12-16T14:54:28;1.20;99.90
8862;DHT22;4799;50.996;4.754;2022-12-16T14:57:16;1.10;99.90
8862;DHT22;4799;50.996;4.754;2022-12-16T15:05:40;0.90;99.90
8862;DHT22;4799;50.996;4.754;2022-12-16T15:08:26;0.90;99.90
8862;DHT22;4799;50.996;4.754;2022-12-16T15:11:14;0.80;99.90
8862;DHT22;4799;50.996;4.754;2022-12-16T15:13:59;0.70;99.90
8862;DHT22;4799;50.996;4.754;2022-12-16T15:16:46;0.60;99.90
8862;DHT22;4799;50.996;4.754;2022-12-16T15:19:48;0.50;99.90
8862;DHT22;4799;50.996;4.754;2022-12-16T15:22:34;0.40;99.90
8862;DHT22;4799;50.996;4.754;2022-12-16T15:25:20;0.20;99.90
8862;DHT22;4799;50.996;4.754;2022-12-16T15:28:25;0.10;99.90
8862;DHT22;4799;50.996;4.754;2022-12-16T15:31:14;0.00;99.90
8862;DHT22;4799;50.996;4.754;2022-12-16T15:34:25;-0.10;99.90
8862;DHT22;4799;50.996;4.754;2022-12-16T15:37:19;-0.30;99.90
8862;DHT22;4799;50.996;4.754;2022-12-16T15:40:21;-0.40;99.90
8862;DHT22;4799;50.996;4.754;2022-12-16T15:43:24;-0.40;99.90
8862;DHT22;4799;50.996;4.754;2022-12-16T15:46:17;-0.50;99.90
8862;DHT22;4799;50.996;4.754;2022-12-16T15:49:02;-0.60;99.90
8862;DHT22;4799;50.996;4.754;2022-12-16T15:51:48;-0.70;99.90
8862;DHT22;4799;50.996;4.754;2022-12-16T15:54:32;-0.80;99.90
8862;DHT22;4799;50.996;4.754;2022-12-16T15:57:29;-0.90;99.90
8862;DHT22;4799;50.996;4.754;2022-12-16T16:03:22;-1.00;99.90
8862;DHT22;4799;50.996;4.754;2022-12-16T16:08:58;-1.20;99.90
8862;DHT22;4799;50.996;4.754;2022-12-16T16:11:42;-1.30;99.90
8862;DHT22;4799;50.996;4.754;2022-12-16T16:14:26;-1.30;99.90
8862;DHT22;4799;50.996;4.754;2022-12-16T16:17:21;-1.30;99.90
8862;DHT22;4799;50.996;4.754;2022-12-16T16:20:08;-1.30;99.90
8862;DHT22;4799;50.996;4.754;2022-12-16T16:22:54;-1.40;99.90
8862;DHT22;4799;50.996;4.754;2022-12-16T16:25:38;-1.40;99.90
8862;DHT22;4799;50.996;4.754;2022-12-16T16:28:23;-1.40;99.90
8862;DHT22;4799;50.996;4.754;2022-12-16T16:31:09;-1.50;99.90
8862;DHT22;4799;50.996;4.754;2022-12-16T16:33:53;-1.50;99.90
8862;DHT22;4799;50.996;4.754;2022-12-16T16:36:37;-1.60;99.90
8862;DHT22;4799;50.996;4.754;2022-12-16T16:39:22;-1.60;99.90
8862;DHT22;4799;50.996;4.754;2022-12-16T16:42:08;-1.70;99.90
8862;DHT22;4799;50.996;4.754;2022-12-16T16:44:52;-1.80;99.90
8862;DHT22;4799;50.996;4.754;2022-12-16T16:47:37;-1.80;99.90
8862;DHT22;4799;50.996;4.754;2022-12-16T16:50:22;-1.90;99.90
8862;DHT22;4799;50.996;4.754;2022-12-16T16:53:13;-2.00;99.90
8862;DHT22;4799;50.996;4.754;2022-12-16T16:55:59;-2.00;99.90
8862;DHT22;4799;50.996;4.754;2022-12-16T16:58:44;-2.00;99.90
8862;DHT22;4799;50.996;4.754;2022-12-16T17:01:28;-2.10;99.90
8862;DHT22;4799;50.996;4.754;2022-12-16T17:04:13;-2.10;99.90
8862;DHT22;4799;50.996;4.754;2022-12-16T17:06:57;-2.20;99.90
8862;DHT22;4799;50.996;4.754;2022-12-16T17:09:47;-2.10;99.90
8862;DHT22;4799;50.996;4.754;2022-12-16T17:12:32;-2.20;99.90
8862;DHT22;4799;50.996;4.754;2022-12-16T17:15:19;-2.20;99.90
8862;DHT22;4799;50.996;4.754;2022-12-16T17:18:04;-2.20;99.90
8862;DHT22;4799;50.996;4.754;2022-12-16T17:20:50;-2.10;99.90
8862;DHT22;4799;50.996;4.754;2022-12-16T17:23:34;-2.10;99.90
8862;DHT22;4799;50.996;4.754;2022-12-16T17:26:19;-2.10;99.90
8862;DHT22;4799;50.996;4.754;2022-12-16T17:29:04;-2.10;99.90
8862;DHT22;4799;50.996;4.754;2022-12-16T17:31:48;-2.10;99.90
8862;DHT22;4799;50.996;4.754;2022-12-16T17:34:33;-2.20;99.90
8862;DHT22;4799;50.996;4.754;2022-12-16T17:37:17;-2.20;99.90
8862;DHT22;4799;50.996;4.754;2022-12-16T17:40:02;-2.20;99.90
8862;DHT22;4799;50.996;4.754;2022-12-16T17:42:46;-2.30;99.90
8862;DHT22;4799;50.996;4.754;2022-12-16T17:45:31;-2.30;99.90
8862;DHT22;4799;50.996;4.754;2022-12-16T17:48:15;-2.40;99.90
8862;DHT22;4799;50.996;4.754;2022-12-16T17:51:01;-2.40;99.90
8862;DHT22;4799;50.996;4.754;2022-12-16T17:53:45;-2.50;99.90
8862;DHT22;4799;50.996;4.754;2022-12-16T17:56:30;-2.50;99.90
8862;DHT22;4799;50.996;4.754;2022-12-16T17:59:14;-2.60;99.90
8862;DHT22;4799;50.996;4.754;2022-12-16T18:01:58;-2.60;99.90
8862;DHT22;4799;50.996;4.754;2022-12-16T18:04:42;-2.60;99.90
8862;DHT22;4799;50.996;4.754;2022-12-16T18:07:27;-2.60;99.90
8862;DHT22;4799;50.996;4.754;2022-12-16T18:10:11;-2.70;99.90
8862;DHT22;4799;50.996;4.754;2022-12-16T18:12:55;-2.70;99.90
8862;DHT22;4799;50.996;4.754;2022-12-16T18:15:39;-2.70;99.90
8862;DHT22;4799;50.996;4.754;2022-12-16T18:18:23;-2.70;99.90
8862;DHT22;4799;50.996;4.754;2022-12-16T18:21:09;-2.70;99.90
8862;DHT22;4799;50.996;4.754;2022-12-16T18:23:54;-2.70;99.90
8862;DHT22;4799;50.996;4.754;2022-12-16T18:26:38;-2.80;99.90
8862;DHT22;4799;50.996;4.754;2022-12-16T18:29:22;-2.80;99.90
8862;DHT22;4799;50.996;4.754;2022-12-16T18:32:06;-2.90;99.90
8862;DHT22;4799;50.996;4.754;2022-12-16T18:34:50;-3.00;99.90
8862;DHT22;4799;50.996;4.754;2022-12-16T18:37:34;-3.00;99.90
8862;DHT22;4799;50.996;4.754;2022-12-16T18:40:19;-3.10;99.90
8862;DHT22;4799;50.996;4.754;2022-12-16T18:43:03;-3.10;99.90
8862;DHT22;4799;50.996;4.754;2022-12-16T18:45:53;-3.20;99.90
8862;DHT22;4799;50.996;4.754;2022-12-16T18:48:38;-3.20;99.90
8862;DHT22;4799;50.996;4.754;2022-12-16T18:51:22;-3.20;99.90
8862;DHT22;4799;50.996;4.754;2022-12-16T18:54:07;-3.20;99.90
8862;DHT22;4799;50.996;4.754;2022-12-16T18:56:51;-3.30;99.90
8862;DHT22;4799;50.996;4.754;2022-12-16T18:59:36;-3.30;99.90
8862;DHT22;4799;50.996;4.754;2022-12-16T19:02:20;-3.30;99.90
8862;DHT22;4799;50.996;4.754;2022-12-16T19:05:04;-3.30;99.90
8862;DHT22;4799;50.996;4.754;2022-12-16T19:07:48;-3.40;99.90
8862;DHT22;4799;50.996;4.754;2022-12-16T19:10:32;-3.40;99.90
8862;DHT22;4799;50.996;4.754;2022-12-16T19:13:16;-3.40;99.90
8862;DHT22;4799;50.996;4.754;2022-12-16T19:16:01;-3.40;99.90
8862;DHT22;4799;50.996;4.754;2022-12-16T19:18:45;-3.40;99.90
8862;DHT22;4799;50.996;4.754;2022-12-16T19:21:30;-3.40;99.90
8862;DHT22;4799;50.996;4.754;2022-12-16T19:24:14;-3.50;99.90
8862;DHT22;4799;50.996;4.754;2022-12-16T19:26:59;-3.50;99.90
8862;DHT22;4799;50.996;4.754;2022-12-16T19:29:43;-3.60;99.90
8862;DHT22;4799;50.996;4.754;2022-12-16T19:32:27;-3.60;99.90
8862;DHT22;4799;50.996;4.754;2022-12-16T19:35:11;-3.60;99.90
8862;DHT22;4799;50.996;4.754;2022-12-16T19:37:55;-3.70;99.90
8862;DHT22;4799;50.996;4.754;2022-12-16T19:40:51;-3.70;99.90
8862;DHT22;4799;50.996;4.754;2022-12-16T19:43:36;-3.80;99.90
8862;DHT22;4799;50.996;4.754;2022-12-16T19:46:20;-3.80;99.90
8862;DHT22;4799;50.996;4.754;2022-12-16T19:49:04;-3.80;99.90
8862;DHT22;4799;50.996;4.754;2022-12-16T19:51:48;-3.90;99.90
8862;DHT22;4799;50.996;4.754;2022-12-16T19:54:33;-3.80;99.90
8862;DHT22;4799;50.996;4.754;2022-12-16T19:57:17;-3.90;99.90
8862;DHT22;4799;50.996;4.754;2022-12-16T20:00:02;-3.90;99.90
8862;DHT22;4799;50.996;4.754;2022-12-16T20:02:47;-4.00;99.90